Time;durP1;ratioP1;P1;durP2;ratioP2;P2;SDS_P1;SDS_P2;PMS_P1;PMS_P2;Temp;Humidity;BMP_temperature;BMP_pressure;BME280_temperature;BME280_humidity;BME280_pressure;Samples;Min_cycle;Max_cycle;Signal;HPM_P1;HPM_P2
2022/12/06 00:00:53;;;;;;;;;;;6.00;78.70;;;;;;5039100;27;92026;-41
2022/12/06 00:03:18;;;;;;;;;;;5.90;78.70;;;;;;5038024;28;93995;-41
2022/12/06 00:05:44;;;;;;;;;;;6.00;78.80;;;;;;5039097;28;92489;-41
2022/12/06 00:08:09;;;;;;;;;;;5.90;78.70;;;;;;5038925;28;92607;-41
2022/12/06 00:10:35;;;;;;;;;;;6.00;78.70;;;;;;5038443;28;93242;-41
2022/12/06 00:13:01;;;;;;;;;;;6.00;78.70;;;;;;5038566;28;92150;-41
2022/12/06 00:15:26;;;;;;;;;;;6.00;78.70;;;;;;5041355;27;92330;-41
2022/12/06 00:17:52;;;;;;;;;;;6.00;78.60;;;;;;5039001;28;92148;-41
2022/12/06 00:20:17;;;;;;;;;;;6.00;78.70;;;;;;5039157;28;93141;-41
2022/12/06 00:22:44;;;;;;;;;;;5.90;78.60;;;;;;5038266;28;93302;-41
2022/12/06 00:25:09;;;;;;;;;;;5.90;78.70;;;;;;5038717;28;92154;-41
2022/12/06 00:27:35;;;;;;;;;;;5.90;78.70;;;;;;5038111;28;92965;-41
2022/12/06 00:30:00;;;;;;;;;;;6.00;78.70;;;;;;5037936;28;93215;-41
2022/12/06 00:32:26;;;;;;;;;;;5.90;78.60;;;;;;5038830;28;92145;-41
2022/12/06 00:34:51;;;;;;;;;;;5.90;78.60;;;;;;5038679;28;92275;-41
2022/12/06 00:37:17;;;;;;;;;;;5.90;78.70;;;;;;5041967;28;93231;-41
2022/12/06 00:39:42;;;;;;;;;;;6.00;78.80;;;;;;5042303;28;91918;-41
2022/12/06 00:42:08;;;;;;;;;;;5.90;78.70;;;;;;5041592;28;93001;-41
2022/12/06 00:44:33;;;;;;;;;;;6.00;78.70;;;;;;5042080;28;91168;-41
2022/12/06 00:46:58;;;;;;;;;;;5.90;78.60;;;;;;5042229;28;91974;-41
2022/12/06 00:49:24;;;;;;;;;;;5.90;78.70;;;;;;5041653;28;93207;-41
2022/12/06 00:51:49;;;;;;;;;;;5.90;78.70;;;;;;5041451;28;93027;-41
2022/12/06 00:54:15;;;;;;;;;;;5.90;78.70;;;;;;5042054;28;93359;-41
2022/12/06 00:56:41;;;;;;;;;;;5.90;78.70;;;;;;5041153;28;94691;-41
2022/12/06 00:59:06;;;;;;;;;;;5.90;78.70;;;;;;5044858;28;92147;-41
2022/12/06 01:01:32;;;;;;;;;;;5.90;78.70;;;;;;5041192;28;93201;-41
2022/12/06 01:03:59;;;;;;;;;;;5.90;78.70;;;;;;5041730;28;92129;-41
2022/12/06 01:06:26;;;;;;;;;;;5.90;78.80;;;;;;5041590;27;92208;-41
2022/12/06 01:08:53;;;;;;;;;;;5.90;78.70;;;;;;5041666;28;92277;-41
2022/12/06 01:11:19;;;;;;;;;;;5.90;78.70;;;;;;5041461;28;92175;-41
2022/12/06 01:13:45;;;;;;;;;;;5.90;78.60;;;;;;5041237;27;94717;-41
2022/12/06 01:16:12;;;;;;;;;;;5.90;78.70;;;;;;5040390;28;93294;-41
2022/12/06 01:18:38;;;;;;;;;;;5.90;78.70;;;;;;5041505;28;92105;-41
2022/12/06 01:21:07;;;;;;;;;;;5.90;78.50;;;;;;5044376;28;92204;-41
2022/12/06 01:23:33;;;;;;;;;;;5.90;78.60;;;;;;5041286;28;92122;-41
2022/12/06 01:25:58;;;;;;;;;;;5.90;78.70;;;;;;5041485;28;92535;-41
2022/12/06 01:28:24;;;;;;;;;;;5.90;78.70;;;;;;5040689;28;93253;-41
2022/12/06 01:30:49;;;;;;;;;;;5.90;78.60;;;;;;5040955;28;92187;-41
2022/12/06 01:33:15;;;;;;;;;;;5.90;78.60;;;;;;5041909;28;92431;-41
2022/12/06 01:35:41;;;;;;;;;;;5.90;78.70;;;;;;5040789;28;93220;-41
2022/12/06 01:38:07;;;;;;;;;;;5.90;78.60;;;;;;5041298;28;92163;-41
2022/12/06 01:40:44;;;;;;;;;;;5.90;78.60;;;;;;5043142;28;93139;-41
2022/12/06 01:43:28;;;;;;;;;;;5.90;78.60;;;;;;5040786;28;92794;-41
2022/12/06 01:45:53;;;;;;;;;;;5.90;78.60;;;;;;5040469;27;92350;-41
2022/12/06 01:48:21;;;;;;;;;;;5.90;78.60;;;;;;5040231;27;93222;-41
2022/12/06 01:50:46;;;;;;;;;;;5.90;78.60;;;;;;5040863;28;92173;-41
2022/12/06 01:53:12;;;;;;;;;;;5.90;78.70;;;;;;5040954;28;92443;-41
2022/12/06 01:55:38;;;;;;;;;;;5.90;78.70;;;;;;5040475;28;93042;-41
2022/12/06 01:58:16;;;;;;;;;;;5.90;78.60;;;;;;5041508;28;91372;-41
2022/12/06 02:00:42;;;;;;;;;;;5.90;78.50;;;;;;5041011;28;92672;-41
2022/12/06 02:03:09;;;;;;;;;;;5.90;78.60;;;;;;5043385;28;93181;-41
2022/12/06 02:05:36;;;;;;;;;;;5.90;78.60;;;;;;5040370;27;93049;-41
2022/12/06 02:08:02;;;;;;;;;;;5.90;78.60;;;;;;5040096;28;93022;-41
2022/12/06 02:10:28;;;;;;;;;;;5.90;78.60;;;;;;5040788;28;92173;-41
2022/12/06 02:12:54;;;;;;;;;;;5.90;78.70;;;;;;5040642;28;92481;-41
2022/12/06 02:15:22;;;;;;;;;;;5.90;78.70;;;;;;5040229;28;93262;-41
2022/12/06 02:17:57;;;;;;;;;;;5.90;78.70;;;;;;5040666;28;92720;-41
2022/12/06 02:20:22;;;;;;;;;;;5.90;78.60;;;;;;5040579;28;92407;-41
2022/12/06 02:22:51;;;;;;;;;;;5.90;78.70;;;;;;5040185;28;92436;-41
2022/12/06 02:25:16;;;;;;;;;;;5.90;78.60;;;;;;5043706;28;92134;-41
2022/12/06 02:27:54;;;;;;;;;;;5.90;78.60;;;;;;5039879;28;93064;-41
2022/12/06 02:30:33;;;;;;;;;;;5.90;78.70;;;;;;5039862;28;93104;-41
2022/12/06 02:33:04;;;;;;;;;;;5.90;78.60;;;;;;5040336;27;93275;-41
2022/12/06 02:35:41;;;;;;;;;;;5.80;78.70;;;;;;5039414;28;94334;-41
2022/12/06 02:38:12;;;;;;;;;;;5.90;78.70;;;;;;5040524;28;92102;-41
2022/12/06 02:40:41;;;;;;;;;;;5.80;78.60;;;;;;5040584;27;92300;-41
2022/12/06 02:43:10;;;;;;;;;;;5.80;78.80;;;;;;5039513;28;93016;-41
2022/12/06 02:45:38;;;;;;;;;;;5.80;78.60;;;;;;5039659;28;92241;-41
2022/12/06 02:48:06;;;;;;;;;;;5.80;78.60;;;;;;5041552;28;92633;-41
2022/12/06 02:50:36;;;;;;;;;;;5.90;78.70;;;;;;5039897;28;92182;-41
2022/12/06 02:53:02;;;;;;;;;;;5.80;78.50;;;;;;5040002;27;92321;-41
2022/12/06 02:55:29;;;;;;;;;;;5.80;78.60;;;;;;5038585;28;94857;-41
2022/12/06 02:57:56;;;;;;;;;;;5.80;78.50;;;;;;5039912;28;92123;-41
2022/12/06 03:00:27;;;;;;;;;;;5.80;78.60;;;;;;5038726;27;93620;-41
2022/12/06 03:02:57;;;;;;;;;;;5.80;78.50;;;;;;5039311;28;93160;-41
2022/12/06 03:05:27;;;;;;;;;;;5.80;78.80;;;;;;5039668;28;92166;-41
2022/12/06 03:07:53;;;;;;;;;;;5.80;78.80;;;;;;5039540;27;94034;-41
2022/12/06 03:10:18;;;;;;;;;;;5.80;78.80;;;;;;5042333;28;93031;-41
2022/12/06 03:12:43;;;;;;;;;;;5.80;78.80;;;;;;5040329;28;91591;-41
2022/12/06 03:15:22;;;;;;;;;;;5.80;78.70;;;;;;5038972;28;92988;-41
2022/12/06 03:17:59;;;;;;;;;;;5.80;78.90;;;;;;5039881;28;92016;-41
2022/12/06 03:20:33;;;;;;;;;;;5.80;78.80;;;;;;5039216;28;92898;-41
2022/12/06 03:23:03;;;;;;;;;;;5.80;78.70;;;;;;5038896;28;93243;-41
2022/12/06 03:25:30;;;;;;;;;;;5.80;78.80;;;;;;5039281;28;92108;-41
2022/12/06 03:27:56;;;;;;;;;;;5.80;78.90;;;;;;5039456;27;91912;-41
2022/12/06 03:30:22;;;;;;;;;;;5.80;78.80;;;;;;5038950;28;93142;-41
2022/12/06 03:32:48;;;;;;;;;;;5.80;78.70;;;;;;5042206;28;91977;-41
2022/12/06 03:35:17;;;;;;;;;;;5.80;78.90;;;;;;5039115;28;93005;-41
2022/12/06 03:37:46;;;;;;;;;;;5.80;78.80;;;;;;5039962;28;91449;-41
2022/12/06 03:40:11;;;;;;;;;;;5.80;78.70;;;;;;5039084;27;92165;-41
2022/12/06 03:42:37;;;;;;;;;;;5.80;78.60;;;;;;5039000;28;93287;-41
2022/12/06 03:45:03;;;;;;;;;;;5.80;79.10;;;;;;5038102;28;94114;-41
2022/12/06 03:47:37;;;;;;;;;;;5.80;78.60;;;;;;5039343;27;93253;-41
2022/12/06 03:50:12;;;;;;;;;;;5.80;78.80;;;;;;5038939;28;93027;-41
2022/12/06 03:52:38;;;;;;;;;;;5.70;78.90;;;;;;5042103;28;92119;-41
2022/12/06 03:55:03;;;;;;;;;;;5.80;78.90;;;;;;5038950;28;93157;-41
2022/12/06 03:57:29;;;;;;;;;;;5.80;78.70;;;;;;5039259;28;92147;-41
2022/12/06 03:59:55;;;;;;;;;;;5.70;78.70;;;;;;5039320;27;92376;-41
2022/12/06 04:02:20;;;;;;;;;;;5.70;78.90;;;;;;5039175;28;92465;-41
2022/12/06 04:04:45;;;;;;;;;;;5.70;79.00;;;;;;5038968;28;92115;-41
2022/12/06 04:07:11;;;;;;;;;;;5.70;78.80;;;;;;5039038;28;92402;-41
2022/12/06 04:09:54;;;;;;;;;;;5.70;78.90;;;;;;5037542;28;95280;-41
2022/12/06 04:15:05;;;;;;;;;;;5.70;78.80;;;;;;5045505;28;92330;-41
2022/12/06 04:20:14;;;;;;;;;;;5.70;78.90;;;;;;5042606;28;92087;-41
2022/12/06 04:25:24;;;;;;;;;;;5.70;78.80;;;;;;5042519;28;91917;-41
2022/12/06 04:38:46;;;;;;;;;;;5.70;78.80;;;;;;5044852;28;92285;-41
2022/12/06 04:43:40;;;;;;;;;;;5.70;78.90;;;;;;5042386;27;93398;-41
2022/12/06 04:43:57;;;;;;;;;;;5.80;78.90;;;;;;5041307;28;93235;-41
2022/12/06 04:46:23;;;;;;;;;;;5.80;78.70;;;;;;5041701;28;92170;-41
2022/12/06 04:48:49;;;;;;;;;;;5.80;78.80;;;;;;5041832;28;93710;-41
2022/12/06 04:51:15;;;;;;;;;;;5.80;78.80;;;;;;5041394;28;93244;-41
2022/12/06 04:53:40;;;;;;;;;;;5.70;78.80;;;;;;5042465;28;91369;-41
2022/12/06 04:56:06;;;;;;;;;;;5.70;78.80;;;;;;5042086;27;91924;-41
2022/12/06 04:58:32;;;;;;;;;;;5.70;79.00;;;;;;5041141;28;93598;-41
2022/12/06 05:00:57;;;;;;;;;;;5.70;78.80;;;;;;5044398;28;93641;-41
2022/12/06 05:03:23;;;;;;;;;;;5.80;79.30;;;;;;5041584;28;93054;-41
2022/12/06 05:05:49;;;;;;;;;;;5.80;78.80;;;;;;5041736;28;92143;-41
2022/12/06 05:08:14;;;;;;;;;;;5.80;78.70;;;;;;5041641;28;93841;-41
2022/12/06 05:10:40;;;;;;;;;;;5.80;78.80;;;;;;5041266;28;93271;-41
2022/12/06 05:13:05;;;;;;;;;;;5.80;78.70;;;;;;5041553;28;92140;-41
2022/12/06 05:15:31;;;;;;;;;;;5.80;78.70;;;;;;5041752;28;92615;-41
2022/12/06 05:17:56;;;;;;;;;;;5.80;78.80;;;;;;5041456;28;92325;-41
2022/12/06 05:20:22;;;;;;;;;;;5.70;78.80;;;;;;5041659;28;92304;-41
2022/12/06 05:22:47;;;;;;;;;;;5.70;78.90;;;;;;5043134;27;92132;-41
2022/12/06 05:25:13;;;;;;;;;;;5.80;78.90;;;;;;5040831;28;93236;-41
2022/12/06 05:27:39;;;;;;;;;;;5.80;78.80;;;;;;5041417;28;93525;-41
2022/12/06 05:30:05;;;;;;;;;;;5.80;78.80;;;;;;5040955;28;93194;-41
2022/12/06 05:32:30;;;;;;;;;;;5.70;78.90;;;;;;5041428;28;92008;-41
2022/12/06 05:34:56;;;;;;;;;;;5.70;78.90;;;;;;5041286;27;92405;-41
2022/12/06 05:37:21;;;;;;;;;;;5.70;78.90;;;;;;5040706;28;93117;-41
2022/12/06 05:39:47;;;;;;;;;;;5.70;78.90;;;;;;5041383;28;92145;-41
2022/12/06 05:42:12;;;;;;;;;;;5.70;78.80;;;;;;5044111;27;93905;-41
2022/12/06 05:44:38;;;;;;;;;;;5.70;78.80;;;;;;5040649;28;92709;-41
2022/12/06 05:47:03;;;;;;;;;;;5.80;78.80;;;;;;5040772;28;93782;-41
2022/12/06 05:49:29;;;;;;;;;;;5.80;78.80;;;;;;5039836;28;94187;-41
2022/12/06 05:51:54;;;;;;;;;;;5.80;78.70;;;;;;5040782;28;92166;-41
2022/12/06 05:54:20;;;;;;;;;;;5.80;78.70;;;;;;5041115;28;92404;-41
2022/12/06 05:56:47;;;;;;;;;;;5.80;78.80;;;;;;5040461;28;92991;-41
2022/12/06 05:59:13;;;;;;;;;;;5.80;78.80;;;;;;5040915;28;92108;-41
2022/12/06 06:01:38;;;;;;;;;;;5.80;78.80;;;;;;5041061;28;92408;-41
2022/12/06 06:04:04;;;;;;;;;;;5.80;78.70;;;;;;5043553;28;93051;-41
2022/12/06 06:06:29;;;;;;;;;;;5.80;78.70;;;;;;5041278;28;92349;-41
2022/12/06 06:08:55;;;;;;;;;;;5.80;78.70;;;;;;5040416;28;93224;-41
2022/12/06 06:11:20;;;;;;;;;;;5.80;78.70;;;;;;5040850;28;92193;-41
2022/12/06 06:13:46;;;;;;;;;;;5.80;78.60;;;;;;5040186;28;93050;-41
2022/12/06 06:16:11;;;;;;;;;;;5.80;78.60;;;;;;5040212;28;93051;-41
2022/12/06 06:18:37;;;;;;;;;;;5.80;78.80;;;;;;5040722;28;92166;-41
2022/12/06 06:21:02;;;;;;;;;;;5.80;78.60;;;;;;5040393;28;92625;-41
2022/12/06 06:23:28;;;;;;;;;;;5.80;78.70;;;;;;5039816;28;93036;-41
2022/12/06 06:25:54;;;;;;;;;;;5.90;78.70;;;;;;5043528;28;92150;-41
2022/12/06 06:28:19;;;;;;;;;;;5.80;79.20;;;;;;5039974;28;93582;-41
2022/12/06 06:30:45;;;;;;;;;;;5.80;78.50;;;;;;5040888;28;91458;-41
2022/12/06 06:33:10;;;;;;;;;;;5.80;78.70;;;;;;5040388;28;92870;-41
2022/12/06 06:35:36;;;;;;;;;;;5.90;78.70;;;;;;5038478;28;94325;-41
2022/12/06 06:38:02;;;;;;;;;;;5.80;78.70;;;;;;5039505;28;93042;-41
2022/12/06 06:40:28;;;;;;;;;;;5.90;78.70;;;;;;5040273;27;93186;-41
2022/12/06 06:42:54;;;;;;;;;;;5.80;79.10;;;;;;5039756;28;93004;-41
2022/12/06 06:45:19;;;;;;;;;;;5.80;78.60;;;;;;5039994;28;92212;-41
2022/12/06 06:47:45;;;;;;;;;;;5.90;78.60;;;;;;5042487;27;92372;-41
2022/12/06 06:50:11;;;;;;;;;;;5.90;78.60;;;;;;5040210;28;92236;-41
2022/12/06 06:52:36;;;;;;;;;;;5.90;78.70;;;;;;5039776;27;92493;-41
2022/12/06 06:55:02;;;;;;;;;;;5.90;78.70;;;;;;5039979;28;92228;-41
2022/12/06 06:57:27;;;;;;;;;;;5.90;78.70;;;;;;5039784;28;92106;-41
2022/12/06 06:59:55;;;;;;;;;;;5.80;78.70;;;;;;5040216;28;92507;-41
2022/12/06 07:02:20;;;;;;;;;;;5.90;78.70;;;;;;5038897;28;93914;-41
2022/12/06 07:04:46;;;;;;;;;;;5.80;78.80;;;;;;5039864;28;92136;-41
2022/12/06 07:07:12;;;;;;;;;;;5.90;78.70;;;;;;5039845;28;92404;-41
2022/12/06 07:09:37;;;;;;;;;;;5.90;78.70;;;;;;5042458;28;93199;-41
2022/12/06 07:12:03;;;;;;;;;;;5.80;78.70;;;;;;5039895;27;92310;-41
2022/12/06 07:14:29;;;;;;;;;;;5.80;78.70;;;;;;5038872;28;95415;-41
2022/12/06 07:16:54;;;;;;;;;;;5.90;78.60;;;;;;5039953;28;92096;-41
2022/12/06 07:19:20;;;;;;;;;;;5.90;78.50;;;;;;5040075;27;93705;-41
2022/12/06 07:21:46;;;;;;;;;;;5.90;78.50;;;;;;5038965;28;93095;-41
2022/12/06 07:24:11;;;;;;;;;;;5.90;78.60;;;;;;5039259;28;92196;-41
2022/12/06 07:26:37;;;;;;;;;;;5.90;78.50;;;;;;5039434;28;93475;-41
2022/12/06 07:29:02;;;;;;;;;;;5.90;78.40;;;;;;5038741;28;94268;-41
2022/12/06 07:31:29;;;;;;;;;;;5.90;78.60;;;;;;5042835;28;92159;-41
2022/12/06 07:33:56;;;;;;;;;;;5.90;78.60;;;;;;5038999;28;93003;-41
2022/12/06 07:36:22;;;;;;;;;;;5.90;78.50;;;;;;5039227;28;92147;-41
2022/12/06 07:38:48;;;;;;;;;;;5.90;78.30;;;;;;5039110;27;94745;-41
2022/12/06 07:46:44;;;;;;;;;;;5.90;78.40;;;;;;5038465;28;91923;-41
2022/12/06 07:49:09;;;;;;;;;;;5.90;78.30;;;;;;5038745;28;92977;-41
2022/12/06 07:51:35;;;;;;;;;;;6.00;78.40;;;;;;5041651;28;92991;-41
2022/12/06 07:54:01;;;;;;;;;;;6.00;78.30;;;;;;5038423;28;93184;-41
2022/12/06 07:56:26;;;;;;;;;;;6.00;78.30;;;;;;5039427;28;92105;-41
2022/12/06 07:58:52;;;;;;;;;;;6.00;78.20;;;;;;5039329;27;92606;-41
2022/12/06 08:01:18;;;;;;;;;;;6.00;78.30;;;;;;5038586;28;93110;-41
2022/12/06 08:03:43;;;;;;;;;;;6.00;78.30;;;;;;5038841;28;92131;-41
2022/12/06 08:06:09;;;;;;;;;;;6.00;78.20;;;;;;5039199;27;92011;-41
2022/12/06 08:08:35;;;;;;;;;;;6.00;78.30;;;;;;5038860;28;92451;-41
2022/12/06 08:11:01;;;;;;;;;;;6.00;78.30;;;;;;5039094;28;92089;-41
2022/12/06 08:13:27;;;;;;;;;;;6.00;78.30;;;;;;5041550;27;92413;-41
2022/12/06 08:15:52;;;;;;;;;;;6.00;78.20;;;;;;5036785;28;93114;-41
2022/12/06 08:18:18;;;;;;;;;;;6.00;78.10;;;;;;5038998;28;93646;-41
2022/12/06 08:20:43;;;;;;;;;;;6.00;78.20;;;;;;5038518;28;93196;-41
2022/12/06 08:23:09;;;;;;;;;;;6.00;78.30;;;;;;5038249;28;92133;-41
2022/12/06 08:25:34;;;;;;;;;;;6.00;78.40;;;;;;5038901;28;92418;-41
2022/12/06 08:28:00;;;;;;;;;;;6.00;78.20;;;;;;5038222;28;93094;-41
2022/12/06 08:30:25;;;;;;;;;;;6.00;78.30;;;;;;5038874;28;91975;-41
2022/12/06 08:32:51;;;;;;;;;;;6.00;78.30;;;;;;5039237;27;92416;-41
2022/12/06 08:35:16;;;;;;;;;;;6.00;78.30;;;;;;5041264;28;93038;-41
2022/12/06 08:37:42;;;;;;;;;;;6.00;78.40;;;;;;5038863;28;92074;-41
2022/12/06 08:40:08;;;;;;;;;;;5.90;78.50;;;;;;5037153;28;95479;-41
2022/12/06 08:42:33;;;;;;;;;;;5.90;78.40;;;;;;5038816;28;92148;-41
2022/12/06 08:44:59;;;;;;;;;;;5.90;78.70;;;;;;5037989;28;92389;-41
2022/12/06 08:47:24;;;;;;;;;;;5.90;78.60;;;;;;5037502;28;93612;-41
2022/12/06 08:49:50;;;;;;;;;;;5.90;78.70;;;;;;5038634;28;92177;-41
2022/12/06 08:52:16;;;;;;;;;;;5.90;78.70;;;;;;5038455;27;93698;-41
2022/12/06 08:54:41;;;;;;;;;;;5.90;78.80;;;;;;5037851;28;93206;-41
2022/12/06 08:57:07;;;;;;;;;;;5.90;78.60;;;;;;5041943;27;91397;-41
2022/12/06 08:59:33;;;;;;;;;;;6.00;78.70;;;;;;5040587;28;93446;-41
2022/12/06 09:01:58;;;;;;;;;;;5.90;78.70;;;;;;5041898;28;92165;-41
2022/12/06 09:04:24;;;;;;;;;;;5.90;78.80;;;;;;5041483;27;93502;-41
2022/12/06 09:06:49;;;;;;;;;;;5.90;78.70;;;;;;5041099;28;93697;-41
2022/12/06 09:09:15;;;;;;;;;;;5.90;79.10;;;;;;5041754;28;92150;-41
2022/12/06 09:11:41;;;;;;;;;;;5.90;78.80;;;;;;5041766;28;92549;-41
2022/12/06 09:14:10;;;;;;;;;;;5.90;78.70;;;;;;5041023;28;92995;-41
2022/12/06 09:16:36;;;;;;;;;;;6.00;78.70;;;;;;5040149;28;92051;-41
2022/12/06 09:19:02;;;;;;;;;;;5.90;78.60;;;;;;5043815;27;93841;-41
2022/12/06 09:21:29;;;;;;;;;;;6.00;78.70;;;;;;5041962;28;91405;-41
2022/12/06 09:23:55;;;;;;;;;;;6.00;78.80;;;;;;5041175;28;92077;-41
2022/12/06 09:26:21;;;;;;;;;;;6.00;78.80;;;;;;5041015;28;93011;-41
2022/12/06 09:28:49;;;;;;;;;;;5.90;79.30;;;;;;5040707;27;93065;-41
2022/12/06 09:31:15;;;;;;;;;;;6.00;78.70;;;;;;5041193;27;94983;-41
2022/12/06 09:33:40;;;;;;;;;;;6.00;78.70;;;;;;5040343;28;94271;-41
2022/12/06 09:36:11;;;;;;;;;;;6.00;78.60;;;;;;5041803;28;92483;-41
2022/12/06 09:38:37;;;;;;;;;;;6.10;78.50;;;;;;5041306;27;92013;-41
2022/12/06 09:41:03;;;;;;;;;;;6.00;78.60;;;;;;5044055;28;93190;-41
2022/12/06 09:43:47;;;;;;;;;;;6.00;78.70;;;;;;5041214;28;92410;-41
2022/12/06 09:46:48;;;;;;;;;;;6.00;78.60;;;;;;5040468;27;92405;-41
2022/12/06 09:49:24;;;;;;;;;;;6.10;78.70;;;;;;4998419;28;92144;-41
2022/12/06 09:52:08;;;;;;;;;;;6.10;78.70;;;;;;5034883;28;92426;-41
2022/12/06 09:54:50;;;;;;;;;;;6.10;78.50;;;;;;5039648;27;94156;-41
2022/12/06 09:57:19;;;;;;;;;;;6.10;78.50;;;;;;5041061;28;91985;-42
2022/12/06 09:59:47;;;;;;;;;;;6.10;78.50;;;;;;5040897;28;92395;-41
2022/12/06 10:02:20;;;;;;;;;;;6.10;78.60;;;;;;5043202;28;94516;-41
2022/12/06 10:04:45;;;;;;;;;;;6.10;78.60;;;;;;5040655;28;92360;-41
2022/12/06 10:07:17;;;;;;;;;;;6.10;78.60;;;;;;5040326;28;93091;-41
2022/12/06 10:09:52;;;;;;;;;;;6.10;78.60;;;;;;5040621;28;93125;-41
2022/12/06 10:12:20;;;;;;;;;;;6.10;78.40;;;;;;5041351;28;92304;-41
2022/12/06 10:14:48;;;;;;;;;;;6.10;78.60;;;;;;5040083;28;93267;-41
2022/12/06 10:17:23;;;;;;;;;;;6.10;78.50;;;;;;5040764;28;92044;-41
2022/12/06 10:19:54;;;;;;;;;;;6.10;78.50;;;;;;5039938;28;92940;-41
2022/12/06 10:22:25;;;;;;;;;;;6.10;78.70;;;;;;5040226;28;93239;-41
2022/12/06 10:25:03;;;;;;;;;;;6.10;78.60;;;;;;5043589;28;92648;-41
2022/12/06 10:27:32;;;;;;;;;;;6.10;78.50;;;;;;5040002;28;92343;-41
2022/12/06 10:30:03;;;;;;;;;;;6.10;78.50;;;;;;5040027;28;92027;-41
2022/12/06 10:32:31;;;;;;;;;;;6.20;78.50;;;;;;5040343;27;94101;-41
2022/12/06 10:34:57;;;;;;;;;;;6.10;78.70;;;;;;5039987;28;93083;-41
2022/12/06 10:37:40;;;;;;;;;;;6.20;78.60;;;;;;5040840;28;91414;-41
2022/12/06 10:40:35;;;;;;;;;;;6.20;78.70;;;;;;5040597;27;91970;-41
2022/12/06 10:43:16;;;;;;;;;;;6.20;78.70;;;;;;5001193;28;93034;-41
2022/12/06 10:48:39;;;;;;;;;;;6.20;78.80;;;;;;5042240;28;92531;-41
2022/12/06 10:51:15;;;;;;;;;;;6.20;78.70;;;;;;5040203;28;92411;-41
2022/12/06 10:53:46;;;;;;;;;;;6.30;78.60;;;;;;5040360;27;92490;-41
2022/12/06 10:56:20;;;;;;;;;;;6.20;78.60;;;;;;5039586;28;93198;-41
2022/12/06 10:59:08;;;;;;;;;;;6.30;78.60;;;;;;5039998;28;91981;-41
2022/12/06 11:01:37;;;;;;;;;;;6.30;78.70;;;;;;5039827;27;92774;-41
2022/12/06 11:04:20;;;;;;;;;;;6.30;78.50;;;;;;5039830;28;92304;-41
2022/12/06 11:06:50;;;;;;;;;;;6.30;78.60;;;;;;5039688;28;92105;-41
2022/12/06 11:09:30;;;;;;;;;;;6.30;78.40;;;;;;5039862;27;92401;-41
2022/12/06 11:11:56;;;;;;;;;;;6.30;78.50;;;;;;5041940;28;94241;-41
2022/12/06 11:14:22;;;;;;;;;;;6.30;78.50;;;;;;5040001;28;93336;-41
2022/12/06 11:17:08;;;;;;;;;;;6.40;78.90;;;;;;5039262;28;92844;-41
2022/12/06 11:19:44;;;;;;;;;;;6.40;78.50;;;;;;5039005;28;93013;-41
2022/12/06 11:22:12;;;;;;;;;;;6.40;78.60;;;;;;5039102;27;92408;-41
2022/12/06 11:24:44;;;;;;;;;;;6.40;78.70;;;;;;5039105;28;92305;-41
2022/12/06 11:27:14;;;;;;;;;;;6.30;78.80;;;;;;5039550;28;92208;-41
2022/12/06 11:29:41;;;;;;;;;;;6.30;78.90;;;;;;5039910;27;94127;-41
2022/12/06 11:32:07;;;;;;;;;;;6.30;78.90;;;;;;5038917;28;94433;-41
2022/12/06 11:34:36;;;;;;;;;;;6.30;79.30;;;;;;5042675;28;92133;-41
2022/12/06 11:37:03;;;;;;;;;;;6.30;79.20;;;;;;5038307;28;93578;-41
2022/12/06 11:39:29;;;;;;;;;;;6.30;79.40;;;;;;5039402;28;92128;-41
2022/12/06 11:41:56;;;;;;;;;;;6.30;79.20;;;;;;5039223;27;93900;-41
2022/12/06 11:44:24;;;;;;;;;;;6.30;79.10;;;;;;5038713;28;93022;-41
2022/12/06 11:46:54;;;;;;;;;;;6.30;79.20;;;;;;5038917;28;92064;-41
2022/12/06 11:49:27;;;;;;;;;;;6.30;79.30;;;;;;5039093;28;92501;-41
2022/12/06 11:51:53;;;;;;;;;;;6.30;79.20;;;;;;5038437;28;94944;-41
2022/12/06 11:54:25;;;;;;;;;;;6.30;79.50;;;;;;5039810;28;91396;-41
2022/12/06 11:56:51;;;;;;;;;;;6.30;79.30;;;;;;5041689;28;91919;-41
2022/12/06 11:59:19;;;;;;;;;;;6.40;79.40;;;;;;5039318;28;92586;-41
2022/12/06 12:01:47;;;;;;;;;;;6.40;79.40;;;;;;5038433;27;93651;-41
2022/12/06 12:04:21;;;;;;;;;;;6.40;79.10;;;;;;5038420;28;94511;-41
2022/12/06 12:06:56;;;;;;;;;;;6.30;79.40;;;;;;5039238;28;92094;-41
2022/12/06 12:09:21;;;;;;;;;;;6.40;79.30;;;;;;5039048;27;92778;-41
2022/12/06 12:11:53;;;;;;;;;;;6.40;79.50;;;;;;5038541;28;92736;-41
2022/12/06 12:14:25;;;;;;;;;;;6.40;79.60;;;;;;5038950;28;92024;-41
2022/12/06 12:16:55;;;;;;;;;;;6.40;79.30;;;;;;5041534;27;93901;-41
2022/12/06 12:19:20;;;;;;;;;;;6.40;79.40;;;;;;5039043;28;91492;-41
2022/12/06 12:21:46;;;;;;;;;;;6.50;79.50;;;;;;5039113;27;92020;-41
2022/12/06 12:24:30;;;;;;;;;;;6.50;79.40;;;;;;5038154;28;92964;-41
2022/12/06 12:26:55;;;;;;;;;;;6.50;79.30;;;;;;5037856;27;93058;-41
2022/12/06 12:29:21;;;;;;;;;;;6.40;79.30;;;;;;5038457;28;94451;-41
2022/12/06 12:32:00;;;;;;;;;;;6.40;79.90;;;;;;5037953;28;94195;-41
2022/12/06 12:34:27;;;;;;;;;;;6.40;79.80;;;;;;5040953;28;92095;-41
2022/12/06 12:37:00;;;;;;;;;;;6.50;79.70;;;;;;5042219;27;92585;-41
2022/12/06 12:39:31;;;;;;;;;;;6.50;79.60;;;;;;5044523;28;93326;-41
2022/12/06 12:41:57;;;;;;;;;;;6.50;79.30;;;;;;5041966;27;93881;-41
2022/12/06 12:44:25;;;;;;;;;;;6.50;79.90;;;;;;5042168;28;92510;-41
2022/12/06 12:46:59;;;;;;;;;;;6.50;79.70;;;;;;5041643;28;92333;-41
2022/12/06 12:49:26;;;;;;;;;;;6.50;79.40;;;;;;5042046;28;92668;-41
2022/12/06 12:51:52;;;;;;;;;;;6.50;79.40;;;;;;5040874;28;93281;-41
2022/12/06 12:54:26;;;;;;;;;;;6.50;79.70;;;;;;5041826;28;92337;-41
2022/12/06 12:56:52;;;;;;;;;;;6.50;79.60;;;;;;5042076;27;92375;-41
2022/12/06 12:59:19;;;;;;;;;;;6.50;80.00;;;;;;5041492;28;93001;-41
2022/12/06 13:01:46;;;;;;;;;;;6.50;80.00;;;;;;5044962;28;92538;-41
2022/12/06 13:04:15;;;;;;;;;;;6.60;79.80;;;;;;5041402;28;93011;-41
2022/12/06 13:06:49;;;;;;;;;;;6.60;79.80;;;;;;5041486;28;92155;-41
2022/12/06 13:09:21;;;;;;;;;;;6.60;80.20;;;;;;5042412;27;92080;-41
2022/12/06 13:11:51;;;;;;;;;;;6.60;79.70;;;;;;5041502;28;92965;-41
2022/12/06 13:14:18;;;;;;;;;;;6.60;79.90;;;;;;5041624;28;92194;-41
2022/12/06 13:16:44;;;;;;;;;;;6.60;79.80;;;;;;5040902;27;92989;-41
2022/12/06 13:19:14;;;;;;;;;;;6.60;79.70;;;;;;5041192;28;93118;-41
2022/12/06 13:21:41;;;;;;;;;;;6.60;79.80;;;;;;5041468;28;92165;-41
2022/12/06 13:24:10;;;;;;;;;;;6.60;79.70;;;;;;5043557;28;93885;-41
2022/12/06 13:26:43;;;;;;;;;;;6.70;80.10;;;;;;5041399;28;92388;-41
2022/12/06 13:29:37;;;;;;;;;;;6.70;79.70;;;;;;5041179;27;93862;-41
2022/12/06 13:32:13;;;;;;;;;;;6.70;80.00;;;;;;5031091;28;93110;-41
2022/12/06 13:34:42;;;;;;;;;;;6.70;80.00;;;;;;5041754;28;91449;-41
2022/12/06 13:37:27;;;;;;;;;;;6.60;80.00;;;;;;5041367;27;92167;-41
2022/12/06 13:39:52;;;;;;;;;;;6.70;79.90;;;;;;5040334;28;94556;-41
2022/12/06 13:42:44;;;;;;;;;;;6.60;80.10;;;;;;5039972;28;93167;-41
2022/12/06 13:45:42;;;;;;;;;;;6.70;80.20;;;;;;5038274;27;93429;-41
2022/12/06 13:48:28;;;;;;;;;;;6.70;79.80;;;;;;5019971;28;93217;-41
2022/12/06 13:50:53;;;;;;;;;;;6.70;80.00;;;;;;5018653;27;92287;-40
2022/12/06 13:53:20;;;;;;;;;;;6.70;79.90;;;;;;5040768;28;93122;-40
2022/12/06 13:55:48;;;;;;;;;;;6.80;79.80;;;;;;5040826;28;92237;-40
2022/12/06 13:58:14;;;;;;;;;;;6.70;79.90;;;;;;5040951;28;92208;-40
2022/12/06 14:00:39;;;;;;;;;;;6.80;80.00;;;;;;5041092;28;92797;-40
2022/12/06 14:03:20;;;;;;;;;;;6.80;79.90;;;;;;5040701;28;92132;-40
2022/12/06 14:06:03;;;;;;;;;;;6.80;80.00;;;;;;5040658;27;92578;-40
2022/12/06 14:08:34;;;;;;;;;;;6.80;80.00;;;;;;5039504;27;94027;-40
2022/12/06 14:11:12;;;;;;;;;;;6.80;80.00;;;;;;5044057;28;91952;-40
2022/12/06 14:13:38;;;;;;;;;;;6.80;80.00;;;;;;5039719;28;94465;-40
2022/12/06 14:16:04;;;;;;;;;;;6.80;80.00;;;;;;5040656;28;92226;-40
2022/12/06 14:18:31;;;;;;;;;;;6.80;80.10;;;;;;5040414;28;94255;-40
2022/12/06 14:20:57;;;;;;;;;;;6.80;79.80;;;;;;5040161;28;93083;-40
2022/12/06 14:23:29;;;;;;;;;;;6.80;79.90;;;;;;5040590;28;92324;-41
2022/12/06 14:26:14;;;;;;;;;;;6.80;80.10;;;;;;5040609;27;92268;-40
2022/12/06 14:28:40;;;;;;;;;;;6.80;80.00;;;;;;5039978;27;92820;-40
2022/12/06 14:31:06;;;;;;;;;;;6.80;80.00;;;;;;5043699;28;92124;-40
2022/12/06 14:33:32;;;;;;;;;;;6.90;80.10;;;;;;5039028;28;93900;-40
2022/12/06 14:35:58;;;;;;;;;;;6.80;80.10;;;;;;5040556;28;92178;-40
2022/12/06 14:38:28;;;;;;;;;;;6.80;79.90;;;;;;5040545;27;92025;-40
2022/12/06 14:43:48;;;;;;;;;;;6.90;79.90;;;;;;5037212;28;92174;-40
2022/12/06 14:46:16;;;;;;;;;;;6.90;79.80;;;;;;5039557;28;92608;-40
2022/12/06 14:51:33;;;;;;;;;;;6.90;79.80;;;;;;5040587;28;91475;-41
2022/12/06 14:54:14;;;;;;;;;;;6.90;79.90;;;;;;5043058;27;92078;-40
2022/12/06 14:56:43;;;;;;;;;;;6.90;80.00;;;;;;5039118;28;92053;-40
2022/12/06 14:59:09;;;;;;;;;;;6.90;80.00;;;;;;5039215;27;93115;-40
2022/12/06 15:01:44;;;;;;;;;;;6.90;80.00;;;;;;5039550;28;92791;-40
2022/12/06 15:04:21;;;;;;;;;;;6.90;79.90;;;;;;5040003;28;92036;-40
2022/12/06 15:06:54;;;;;;;;;;;6.90;79.80;;;;;;5040279;27;92441;-40
2022/12/06 15:09:21;;;;;;;;;;;6.90;79.90;;;;;;5039188;28;92990;-40
2022/12/06 15:14:34;;;;;;;;;;;7.00;79.90;;;;;;5039768;28;92061;-40